Terminal Aerodrome Forecast
Issued by NWS

Home | Current Version | Previous Version | Text Only | Print | Product List | Glossary On
Versions: 1 2 3 4 5 6 7 8 9 10 11 12 13 14 15 16 17 18 19 20 21 22 23 24 25 26
735
FTUS43 KDLH 232329
TAFBRD
TAF
KBRD 232329Z 2400/2424 34010KT P6SM -TSRA BKN007 BKN011CB
      TEMPO 2400/2403 4SM -TSRA BR SCT007 OVC015CB
     FM240300 09004KT 4SM -SHRA BR SCT007 OVC010
     FM240900 15004KT 4SM BR SCT007 OVC010 WS020/21035KT
     FM241400 18010KT P6SM SCT250=

USA.gov is the U.S. government's official web portal to all federal, state and local government web resources and services.